sensor_id;sensor_type;location;lat;lon;timestamp;pressure;altitude;pressure_sealevel;temperature
9119;BMP180;4594;50.994;7.126;2023-02-01T00:02:17;101060.00;;;12.00
9119;BMP180;4594;50.994;7.126;2023-02-01T00:04:43;101071.00;;;12.00
9119;BMP180;4594;50.994;7.126;2023-02-01T00:07:08;101077.00;;;12.00
9119;BMP180;4594;50.994;7.126;2023-02-01T00:09:34;101060.00;;;12.00
9119;BMP180;4594;50.994;7.126;2023-02-01T00:12:00;101058.00;;;12.00
9119;BMP180;4594;50.994;7.126;2023-02-01T00:14:28;101064.00;;;12.00
9119;BMP180;4594;50.994;7.126;2023-02-01T00:16:53;101068.00;;;12.00
9119;BMP180;4594;50.994;7.126;2023-02-01T00:19:19;101075.00;;;12.00
9119;BMP180;4594;50.994;7.126;2023-02-01T00:21:45;101070.00;;;12.00
9119;BMP180;4594;50.994;7.126;2023-02-01T00:24:12;101075.00;;;12.00
9119;BMP180;4594;50.994;7.126;2023-02-01T00:26:42;101072.00;;;12.00
9119;BMP180;4594;50.994;7.126;2023-02-01T00:29:15;101079.00;;;12.00
9119;BMP180;4594;50.994;7.126;2023-02-01T00:31:42;101084.00;;;12.00
9119;BMP180;4594;50.994;7.126;2023-02-01T00:34:13;101068.00;;;12.00
9119;BMP180;4594;50.994;7.126;2023-02-01T00:36:40;101053.00;;;12.00
9119;BMP180;4594;50.994;7.126;2023-02-01T00:39:06;101046.00;;;12.00
9119;BMP180;4594;50.994;7.126;2023-02-01T00:41:32;101045.00;;;12.00
9119;BMP180;4594;50.994;7.126;2023-02-01T00:43:58;101043.00;;;11.90
9119;BMP180;4594;50.994;7.126;2023-02-01T00:46:24;101063.00;;;11.90
9119;BMP180;4594;50.994;7.126;2023-02-01T00:48:50;101054.00;;;12.00
9119;BMP180;4594;50.994;7.126;2023-02-01T00:51:21;101076.00;;;12.00
9119;BMP180;4594;50.994;7.126;2023-02-01T00:53:47;101053.00;;;11.90
9119;BMP180;4594;50.994;7.126;2023-02-01T00:56:13;101025.00;;;11.90
9119;BMP180;4594;50.994;7.126;2023-02-01T00:58:39;101041.00;;;11.90
9119;BMP180;4594;50.994;7.126;2023-02-01T01:01:24;101034.00;;;11.90
9119;BMP180;4594;50.994;7.126;2023-02-01T01:03:56;101061.00;;;11.80
9119;BMP180;4594;50.994;7.126;2023-02-01T01:06:33;101033.00;;;11.80
9119;BMP180;4594;50.994;7.126;2023-02-01T01:09:03;101048.00;;;11.80
9119;BMP180;4594;50.994;7.126;2023-02-01T01:11:32;101021.00;;;11.80
9119;BMP180;4594;50.994;7.126;2023-02-01T01:14:00;101008.00;;;11.80
9119;BMP180;4594;50.994;7.126;2023-02-01T01:16:28;101017.00;;;11.70
9119;BMP180;4594;50.994;7.126;2023-02-01T01:18:56;101000.00;;;11.70
9119;BMP180;4594;50.994;7.126;2023-02-01T01:21:21;101014.00;;;11.70
9119;BMP180;4594;50.994;7.126;2023-02-01T01:23:47;101021.00;;;11.70
9119;BMP180;4594;50.994;7.126;2023-02-01T01:26:23;101034.00;;;11.60
9119;BMP180;4594;50.994;7.126;2023-02-01T01:28:49;101052.00;;;11.60
9119;BMP180;4594;50.994;7.126;2023-02-01T01:31:16;101035.00;;;11.60
9119;BMP180;4594;50.994;7.126;2023-02-01T01:33:42;101050.00;;;11.60
9119;BMP180;4594;50.994;7.126;2023-02-01T01:36:10;101065.00;;;11.60
9119;BMP180;4594;50.994;7.126;2023-02-01T01:38:39;101075.00;;;11.60
9119;BMP180;4594;50.994;7.126;2023-02-01T01:41:05;101079.00;;;11.60
9119;BMP180;4594;50.994;7.126;2023-02-01T01:43:53;101063.00;;;11.60
9119;BMP180;4594;50.994;7.126;2023-02-01T01:46:24;101069.00;;;11.60
9119;BMP180;4594;50.994;7.126;2023-02-01T01:49:10;101070.00;;;11.60
9119;BMP180;4594;50.994;7.126;2023-02-01T01:51:52;101071.00;;;11.60
9119;BMP180;4594;50.994;7.126;2023-02-01T01:54:29;101061.00;;;11.60
9119;BMP180;4594;50.994;7.126;2023-02-01T01:57:01;101073.00;;;11.60
9119;BMP180;4594;50.994;7.126;2023-02-01T01:59:28;101055.00;;;11.60
9119;BMP180;4594;50.994;7.126;2023-02-01T02:01:55;101058.00;;;11.60
9119;BMP180;4594;50.994;7.126;2023-02-01T02:04:22;101040.00;;;11.50
9119;BMP180;4594;50.994;7.126;2023-02-01T02:07:05;101059.00;;;11.50
9119;BMP180;4594;50.994;7.126;2023-02-01T02:09:33;101034.00;;;11.50
9119;BMP180;4594;50.994;7.126;2023-02-01T02:11:59;101030.00;;;11.50
9119;BMP180;4594;50.994;7.126;2023-02-01T02:14:26;101016.00;;;11.40
9119;BMP180;4594;50.994;7.126;2023-02-01T02:19:54;101033.00;;;11.40
9119;BMP180;4594;50.994;7.126;2023-02-01T02:34:38;101006.00;;;11.30
9119;BMP180;4594;50.994;7.126;2023-02-01T02:37:34;101021.00;;;11.30
9119;BMP180;4594;50.994;7.126;2023-02-01T02:41:07;101028.00;;;11.30
9119;BMP180;4594;50.994;7.126;2023-02-01T02:43:29;101027.00;;;11.30
9119;BMP180;4594;50.994;7.126;2023-02-01T02:46:39;101017.00;;;11.30
9119;BMP180;4594;50.994;7.126;2023-02-01T02:49:49;101020.00;;;11.30
9119;BMP180;4594;50.994;7.126;2023-02-01T02:52:44;101019.00;;;11.30
9119;BMP180;4594;50.994;7.126;2023-02-01T02:55:32;101007.00;;;11.30
9119;BMP180;4594;50.994;7.126;2023-02-01T02:58:04;101012.00;;;11.30
9119;BMP180;4594;50.994;7.126;2023-02-01T03:00:51;100991.00;;;11.30
9119;BMP180;4594;50.994;7.126;2023-02-01T03:03:38;100995.00;;;11.30
9119;BMP180;4594;50.994;7.126;2023-02-01T03:06:24;101003.00;;;11.30
9119;BMP180;4594;50.994;7.126;2023-02-01T03:08:51;100981.00;;;11.30
9119;BMP180;4594;50.994;7.126;2023-02-01T03:11:23;101001.00;;;11.30
9119;BMP180;4594;50.994;7.126;2023-02-01T03:13:51;100988.00;;;11.30
9119;BMP180;4594;50.994;7.126;2023-02-01T03:16:47;100980.00;;;11.30
9119;BMP180;4594;50.994;7.126;2023-02-01T03:19:32;100988.00;;;11.30
9119;BMP180;4594;50.994;7.126;2023-02-01T03:22:05;100983.00;;;11.30
9119;BMP180;4594;50.994;7.126;2023-02-01T03:24:48;100984.00;;;11.30
9119;BMP180;4594;50.994;7.126;2023-02-01T03:27:31;101002.00;;;11.30
9119;BMP180;4594;50.994;7.126;2023-02-01T03:32:26;101001.00;;;11.30
9119;BMP180;4594;50.994;7.126;2023-02-01T03:34:53;100996.00;;;11.30
9119;BMP180;4594;50.994;7.126;2023-02-01T03:37:28;100988.00;;;11.30
9119;BMP180;4594;50.994;7.126;2023-02-01T03:40:06;100992.00;;;11.30
9119;BMP180;4594;50.994;7.126;2023-02-01T03:42:54;100991.00;;;11.30
9119;BMP180;4594;50.994;7.126;2023-02-01T03:45:34;100986.00;;;11.30
9119;BMP180;4594;50.994;7.126;2023-02-01T03:48:03;100987.00;;;11.30
9119;BMP180;4594;50.994;7.126;2023-02-01T03:50:32;100959.00;;;11.30
9119;BMP180;4594;50.994;7.126;2023-02-01T03:53:05;100984.00;;;11.30
9119;BMP180;4594;50.994;7.126;2023-02-01T03:55:33;100970.00;;;11.30
9119;BMP180;4594;50.994;7.126;2023-02-01T03:58:16;100976.00;;;11.30
9119;BMP180;4594;50.994;7.126;2023-02-01T04:01:01;100954.00;;;11.30
9119;BMP180;4594;50.994;7.126;2023-02-01T04:03:27;100973.00;;;11.30
9119;BMP180;4594;50.994;7.126;2023-02-01T04:05:54;100975.00;;;11.30
9119;BMP180;4594;50.994;7.126;2023-02-01T04:08:21;100982.00;;;11.30
9119;BMP180;4594;50.994;7.126;2023-02-01T04:10:46;100982.00;;;11.30
9119;BMP180;4594;50.994;7.126;2023-02-01T04:13:12;100987.00;;;11.30
9119;BMP180;4594;50.994;7.126;2023-02-01T04:15:38;100978.00;;;11.30
9119;BMP180;4594;50.994;7.126;2023-02-01T04:18:04;100978.00;;;11.30
9119;BMP180;4594;50.994;7.126;2023-02-01T04:20:30;100981.00;;;11.30
9119;BMP180;4594;50.994;7.126;2023-02-01T04:22:56;100985.00;;;11.40
9119;BMP180;4594;50.994;7.126;2023-02-01T04:25:21;100970.00;;;11.40
9119;BMP180;4594;50.994;7.126;2023-02-01T04:27:47;100967.00;;;11.40
9119;BMP180;4594;50.994;7.126;2023-02-01T04:30:13;100982.00;;;11.40
9119;BMP180;4594;50.994;7.126;2023-02-01T04:32:40;100966.00;;;11.40
9119;BMP180;4594;50.994;7.126;2023-02-01T04:35:06;100968.00;;;11.40
9119;BMP180;4594;50.994;7.126;2023-02-01T04:37:32;100975.00;;;11.40
9119;BMP180;4594;50.994;7.126;2023-02-01T04:39:58;100954.00;;;11.50
9119;BMP180;4594;50.994;7.126;2023-02-01T04:42:24;100955.00;;;11.50
9119;BMP180;4594;50.994;7.126;2023-02-01T04:44:50;100943.00;;;11.50
9119;BMP180;4594;50.994;7.126;2023-02-01T04:47:15;100943.00;;;11.40
9119;BMP180;4594;50.994;7.126;2023-02-01T04:49:41;100914.00;;;11.40
9119;BMP180;4594;50.994;7.126;2023-02-01T04:52:07;100912.00;;;11.30
9119;BMP180;4594;50.994;7.126;2023-02-01T04:54:33;100940.00;;;11.30
9119;BMP180;4594;50.994;7.126;2023-02-01T04:56:59;100917.00;;;11.20
9119;BMP180;4594;50.994;7.126;2023-02-01T04:59:26;100939.00;;;11.10
9119;BMP180;4594;50.994;7.126;2023-02-01T05:01:51;100920.00;;;11.10
9119;BMP180;4594;50.994;7.126;2023-02-01T05:04:17;100942.00;;;11.00
9119;BMP180;4594;50.994;7.126;2023-02-01T05:06:44;100923.00;;;10.90
9119;BMP180;4594;50.994;7.126;2023-02-01T05:09:10;100934.00;;;10.90
9119;BMP180;4594;50.994;7.126;2023-02-01T05:11:36;100953.00;;;10.80
9119;BMP180;4594;50.994;7.126;2023-02-01T05:14:20;100958.00;;;10.70
9119;BMP180;4594;50.994;7.126;2023-02-01T05:16:46;100931.00;;;10.70
9119;BMP180;4594;50.994;7.126;2023-02-01T05:19:12;100964.00;;;10.70
9119;BMP180;4594;50.994;7.126;2023-02-01T05:21:38;100957.00;;;10.70
9119;BMP180;4594;50.994;7.126;2023-02-01T05:24:04;100967.00;;;10.70
9119;BMP180;4594;50.994;7.126;2023-02-01T05:26:37;100965.00;;;10.70
9119;BMP180;4594;50.994;7.126;2023-02-01T05:29:04;100958.00;;;10.70
9119;BMP180;4594;50.994;7.126;2023-02-01T05:31:30;100950.00;;;10.70
9119;BMP180;4594;50.994;7.126;2023-02-01T05:33:55;100947.00;;;10.60
9119;BMP180;4594;50.994;7.126;2023-02-01T05:36:21;100938.00;;;10.60
9119;BMP180;4594;50.994;7.126;2023-02-01T05:38:47;100949.00;;;10.60
9119;BMP180;4594;50.994;7.126;2023-02-01T05:41:12;100932.00;;;10.60
9119;BMP180;4594;50.994;7.126;2023-02-01T05:43:38;100952.00;;;10.50
9119;BMP180;4594;50.994;7.126;2023-02-01T05:46:04;100978.00;;;10.50
9119;BMP180;4594;50.994;7.126;2023-02-01T05:48:30;100954.00;;;10.50
9119;BMP180;4594;50.994;7.126;2023-02-01T05:50:55;100971.00;;;10.50
9119;BMP180;4594;50.994;7.126;2023-02-01T05:53:21;100947.00;;;10.50
9119;BMP180;4594;50.994;7.126;2023-02-01T05:55:47;100960.00;;;10.50
9119;BMP180;4594;50.994;7.126;2023-02-01T05:58:13;100951.00;;;10.50
9119;BMP180;4594;50.994;7.126;2023-02-01T06:00:39;100953.00;;;10.60
9119;BMP180;4594;50.994;7.126;2023-02-01T06:03:05;100971.00;;;10.60
9119;BMP180;4594;50.994;7.126;2023-02-01T06:05:31;100965.00;;;10.70
9119;BMP180;4594;50.994;7.126;2023-02-01T06:07:57;100972.00;;;10.70
9119;BMP180;4594;50.994;7.126;2023-02-01T06:10:23;100976.00;;;10.80
9119;BMP180;4594;50.994;7.126;2023-02-01T06:12:49;100956.00;;;10.90
9119;BMP180;4594;50.994;7.126;2023-02-01T06:15:15;100956.00;;;10.90
9119;BMP180;4594;50.994;7.126;2023-02-01T06:17:44;100961.00;;;11.00
9119;BMP180;4594;50.994;7.126;2023-02-01T06:20:13;100965.00;;;11.00
9119;BMP180;4594;50.994;7.126;2023-02-01T06:22:39;100962.00;;;11.00
9119;BMP180;4594;50.994;7.126;2023-02-01T06:25:08;100960.00;;;11.00
9119;BMP180;4594;50.994;7.126;2023-02-01T06:27:34;100960.00;;;11.00
9119;BMP180;4594;50.994;7.126;2023-02-01T06:30:05;100956.00;;;11.00
9119;BMP180;4594;50.994;7.126;2023-02-01T06:32:31;100950.00;;;11.10
9119;BMP180;4594;50.994;7.126;2023-02-01T06:34:57;100947.00;;;11.10
9119;BMP180;4594;50.994;7.126;2023-02-01T06:37:23;100961.00;;;11.20
9119;BMP180;4594;50.994;7.126;2023-02-01T06:39:51;100968.00;;;11.20
9119;BMP180;4594;50.994;7.126;2023-02-01T06:42:16;100984.00;;;11.20
9119;BMP180;4594;50.994;7.126;2023-02-01T06:44:42;100968.00;;;11.20
9119;BMP180;4594;50.994;7.126;2023-02-01T06:47:08;100967.00;;;11.30
9119;BMP180;4594;50.994;7.126;2023-02-01T06:49:34;100993.00;;;11.30
9119;BMP180;4594;50.994;7.126;2023-02-01T06:51:59;100947.00;;;11.30
9119;BMP180;4594;50.994;7.126;2023-02-01T06:54:26;101001.00;;;11.40
9119;BMP180;4594;50.994;7.126;2023-02-01T06:56:52;100997.00;;;11.40
9119;BMP180;4594;50.994;7.126;2023-02-01T06:59:18;100977.00;;;11.40
9119;BMP180;4594;50.994;7.126;2023-02-01T07:01:43;100971.00;;;11.40
9119;BMP180;4594;50.994;7.126;2023-02-01T07:04:13;100986.00;;;11.40
9119;BMP180;4594;50.994;7.126;2023-02-01T07:06:39;100986.00;;;11.50
9119;BMP180;4594;50.994;7.126;2023-02-01T07:09:06;100967.00;;;11.50
9119;BMP180;4594;50.994;7.126;2023-02-01T07:11:32;100988.00;;;11.50
9119;BMP180;4594;50.994;7.126;2023-02-01T07:13:58;100987.00;;;11.50
9119;BMP180;4594;50.994;7.126;2023-02-01T07:16:24;100998.00;;;11.50
9119;BMP180;4594;50.994;7.126;2023-02-01T07:18:52;101002.00;;;11.60
9119;BMP180;4594;50.994;7.126;2023-02-01T07:21:19;101004.00;;;11.60
9119;BMP180;4594;50.994;7.126;2023-02-01T07:23:45;101010.00;;;11.60
9119;BMP180;4594;50.994;7.126;2023-02-01T07:26:13;100998.00;;;11.60
9119;BMP180;4594;50.994;7.126;2023-02-01T07:28:40;100993.00;;;11.60
9119;BMP180;4594;50.994;7.126;2023-02-01T07:31:18;101017.00;;;11.60
9119;BMP180;4594;50.994;7.126;2023-02-01T07:33:47;101027.00;;;11.60
9119;BMP180;4594;50.994;7.126;2023-02-01T07:36:16;101012.00;;;11.70
9119;BMP180;4594;50.994;7.126;2023-02-01T07:38:42;101021.00;;;11.70
9119;BMP180;4594;50.994;7.126;2023-02-01T07:41:08;101026.00;;;11.70
9119;BMP180;4594;50.994;7.126;2023-02-01T07:43:35;101018.00;;;11.70
9119;BMP180;4594;50.994;7.126;2023-02-01T07:46:03;101023.00;;;11.70
9119;BMP180;4594;50.994;7.126;2023-02-01T07:48:30;101037.00;;;11.70
9119;BMP180;4594;50.994;7.126;2023-02-01T07:51:01;101033.00;;;11.80
9119;BMP180;4594;50.994;7.126;2023-02-01T07:53:29;101017.00;;;11.80
9119;BMP180;4594;50.994;7.126;2023-02-01T07:55:55;101020.00;;;11.80
9119;BMP180;4594;50.994;7.126;2023-02-01T07:58:25;101024.00;;;11.80
9119;BMP180;4594;50.994;7.126;2023-02-01T08:00:51;101015.00;;;11.80
9119;BMP180;4594;50.994;7.126;2023-02-01T08:03:43;101012.00;;;11.80
9119;BMP180;4594;50.994;7.126;2023-02-01T08:06:08;101017.00;;;11.80
9119;BMP180;4594;50.994;7.126;2023-02-01T08:08:34;101018.00;;;11.80
9119;BMP180;4594;50.994;7.126;2023-02-01T08:11:03;101043.00;;;11.90
9119;BMP180;4594;50.994;7.126;2023-02-01T08:13:29;101009.00;;;11.90
9119;BMP180;4594;50.994;7.126;2023-02-01T08:16:00;101038.00;;;11.90
9119;BMP180;4594;50.994;7.126;2023-02-01T08:18:27;101028.00;;;11.90
9119;BMP180;4594;50.994;7.126;2023-02-01T08:20:53;101044.00;;;11.90
9119;BMP180;4594;50.994;7.126;2023-02-01T08:23:20;101023.00;;;11.90
9119;BMP180;4594;50.994;7.126;2023-02-01T08:25:45;101020.00;;;11.90
9119;BMP180;4594;50.994;7.126;2023-02-01T08:28:12;101049.00;;;11.90
9119;BMP180;4594;50.994;7.126;2023-02-01T08:30:38;101037.00;;;11.90
9119;BMP180;4594;50.994;7.126;2023-02-01T08:33:05;101035.00;;;11.90
9119;BMP180;4594;50.994;7.126;2023-02-01T08:35:38;101043.00;;;12.00
9119;BMP180;4594;50.994;7.126;2023-02-01T08:38:04;101051.00;;;11.90
9119;BMP180;4594;50.994;7.126;2023-02-01T08:40:31;101030.00;;;12.00
9119;BMP180;4594;50.994;7.126;2023-02-01T08:42:57;101046.00;;;12.00
9119;BMP180;4594;50.994;7.126;2023-02-01T08:45:28;101057.00;;;12.00
9119;BMP180;4594;50.994;7.126;2023-02-01T08:47:56;101058.00;;;12.00
9119;BMP180;4594;50.994;7.126;2023-02-01T08:50:23;101034.00;;;12.00
9119;BMP180;4594;50.994;7.126;2023-02-01T08:52:49;101063.00;;;12.00
9119;BMP180;4594;50.994;7.126;2023-02-01T08:55:16;101066.00;;;12.00
9119;BMP180;4594;50.994;7.126;2023-02-01T08:57:42;101066.00;;;12.00
9119;BMP180;4594;50.994;7.126;2023-02-01T09:00:13;101067.00;;;12.10
9119;BMP180;4594;50.994;7.126;2023-02-01T09:02:40;101059.00;;;12.10
9119;BMP180;4594;50.994;7.126;2023-02-01T09:05:07;101080.00;;;12.10
9119;BMP180;4594;50.994;7.126;2023-02-01T09:07:33;101083.00;;;12.10
9119;BMP180;4594;50.994;7.126;2023-02-01T09:09:59;101060.00;;;12.20
9119;BMP180;4594;50.994;7.126;2023-02-01T09:12:31;101062.00;;;12.20
9119;BMP180;4594;50.994;7.126;2023-02-01T09:14:58;101049.00;;;12.20
9119;BMP180;4594;50.994;7.126;2023-02-01T09:17:26;101060.00;;;12.20
9119;BMP180;4594;50.994;7.126;2023-02-01T09:19:52;101070.00;;;12.20
9119;BMP180;4594;50.994;7.126;2023-02-01T09:22:18;101069.00;;;12.30
9119;BMP180;4594;50.994;7.126;2023-02-01T09:24:44;101057.00;;;12.30
9119;BMP180;4594;50.994;7.126;2023-02-01T09:27:10;101041.00;;;12.30
9119;BMP180;4594;50.994;7.126;2023-02-01T09:29:36;101062.00;;;12.30
9119;BMP180;4594;50.994;7.126;2023-02-01T09:32:01;101058.00;;;12.40
9119;BMP180;4594;50.994;7.126;2023-02-01T09:34:27;101040.00;;;12.40
9119;BMP180;4594;50.994;7.126;2023-02-01T09:36:53;101045.00;;;12.40
9119;BMP180;4594;50.994;7.126;2023-02-01T09:39:19;101067.00;;;12.40
9119;BMP180;4594;50.994;7.126;2023-02-01T09:45:10;101066.00;;;12.40
9119;BMP180;4594;50.994;7.126;2023-02-01T09:47:54;101064.00;;;12.40
9119;BMP180;4594;50.994;7.126;2023-02-01T09:50:33;101059.00;;;12.50
9119;BMP180;4594;50.994;7.126;2023-02-01T09:53:12;101058.00;;;12.60
9119;BMP180;4594;50.994;7.126;2023-02-01T09:55:50;101063.00;;;12.60
9119;BMP180;4594;50.994;7.126;2023-02-01T09:58:36;101042.00;;;12.70
9119;BMP180;4594;50.994;7.126;2023-02-01T10:01:08;101049.00;;;12.70
9119;BMP180;4594;50.994;7.126;2023-02-01T10:03:38;101051.00;;;12.70
9119;BMP180;4594;50.994;7.126;2023-02-01T10:18:36;101055.00;;;12.70
9119;BMP180;4594;50.994;7.126;2023-02-01T10:21:54;101051.00;;;12.70
9119;BMP180;4594;50.994;7.126;2023-02-01T10:24:37;101050.00;;;12.80
9119;BMP180;4594;50.994;7.126;2023-02-01T10:27:28;101037.00;;;12.80
9119;BMP180;4594;50.994;7.126;2023-02-01T10:30:01;101030.00;;;12.90
9119;BMP180;4594;50.994;7.126;2023-02-01T10:32:33;101032.00;;;12.90
9119;BMP180;4594;50.994;7.126;2023-02-01T10:35:10;101028.00;;;13.00
9119;BMP180;4594;50.994;7.126;2023-02-01T10:37:40;101038.00;;;13.10
9119;BMP180;4594;50.994;7.126;2023-02-01T10:40:22;101038.00;;;13.20
9119;BMP180;4594;50.994;7.126;2023-02-01T10:43:01;101027.00;;;13.30
9119;BMP180;4594;50.994;7.126;2023-02-01T10:45:31;101029.00;;;13.50
9119;BMP180;4594;50.994;7.126;2023-02-01T10:48:00;101024.00;;;13.70
9119;BMP180;4594;50.994;7.126;2023-02-01T10:51:08;101024.00;;;13.80
9119;BMP180;4594;50.994;7.126;2023-02-01T10:54:03;101021.00;;;14.00
9119;BMP180;4594;50.994;7.126;2023-02-01T10:56:30;101007.00;;;14.10
9119;BMP180;4594;50.994;7.126;2023-02-01T10:59:06;101025.00;;;14.20
9119;BMP180;4594;50.994;7.126;2023-02-01T11:01:40;101030.00;;;14.30
9119;BMP180;4594;50.994;7.126;2023-02-01T11:04:20;101015.00;;;14.30
9119;BMP180;4594;50.994;7.126;2023-02-01T11:07:06;101006.00;;;14.30
9119;BMP180;4594;50.994;7.126;2023-02-01T11:09:40;101019.00;;;14.30
9119;BMP180;4594;50.994;7.126;2023-02-01T11:12:33;101019.00;;;14.30
9119;BMP180;4594;50.994;7.126;2023-02-01T11:15:21;101018.00;;;14.30
9119;BMP180;4594;50.994;7.126;2023-02-01T11:17:50;101019.00;;;14.20
9119;BMP180;4594;50.994;7.126;2023-02-01T11:20:38;101013.00;;;14.20
9119;BMP180;4594;50.994;7.126;2023-02-01T11:23:14;101008.00;;;14.20
9119;BMP180;4594;50.994;7.126;2023-02-01T11:25:50;101004.00;;;14.20
9119;BMP180;4594;50.994;7.126;2023-02-01T11:28:17;100993.00;;;14.20
9119;BMP180;4594;50.994;7.126;2023-02-01T11:30:47;100995.00;;;14.20
9119;BMP180;4594;50.994;7.126;2023-02-01T11:33:18;101004.00;;;14.10
9119;BMP180;4594;50.994;7.126;2023-02-01T11:35:47;101014.00;;;14.10
9119;BMP180;4594;50.994;7.126;2023-02-01T11:38:28;101011.00;;;14.10
9119;BMP180;4594;50.994;7.126;2023-02-01T11:40:54;100992.00;;;14.10
9119;BMP180;4594;50.994;7.126;2023-02-01T11:43:27;101000.00;;;14.10
9119;BMP180;4594;50.994;7.126;2023-02-01T11:45:59;100996.00;;;14.20
9119;BMP180;4594;50.994;7.126;2023-02-01T11:48:28;101001.00;;;14.20
9119;BMP180;4594;50.994;7.126;2023-02-01T11:51:14;100998.00;;;14.20
9119;BMP180;4594;50.994;7.126;2023-02-01T11:54:34;100983.00;;;14.20
9119;BMP180;4594;50.994;7.126;2023-02-01T12:08:58;100971.00;;;14.20
9119;BMP180;4594;50.994;7.126;2023-02-01T12:22:42;100953.00;;;13.90
9119;BMP180;4594;50.994;7.126;2023-02-01T12:28:33;100966.00;;;13.90
9119;BMP180;4594;50.994;7.126;2023-02-01T12:31:12;100959.00;;;13.90
9119;BMP180;4594;50.994;7.126;2023-02-01T12:37:21;100961.00;;;13.80
9119;BMP180;4594;50.994;7.126;2023-02-01T12:40:29;100953.00;;;13.80
9119;BMP180;4594;50.994;7.126;2023-02-01T12:43:43;100957.00;;;13.80
9119;BMP180;4594;50.994;7.126;2023-02-01T12:46:45;100957.00;;;13.80
9119;BMP180;4594;50.994;7.126;2023-02-01T12:49:19;100945.00;;;13.90
9119;BMP180;4594;50.994;7.126;2023-02-01T12:51:57;100939.00;;;13.90
9119;BMP180;4594;50.994;7.126;2023-02-01T12:54:54;100935.00;;;13.90
9119;BMP180;4594;50.994;7.126;2023-02-01T12:57:37;100920.00;;;13.90
9119;BMP180;4594;50.994;7.126;2023-02-01T13:03:40;100918.00;;;13.80
9119;BMP180;4594;50.994;7.126;2023-02-01T13:06:26;100907.00;;;13.80
9119;BMP180;4594;50.994;7.126;2023-02-01T13:11:45;100903.00;;;13.70
9119;BMP180;4594;50.994;7.126;2023-02-01T13:14:52;100903.00;;;13.60
9119;BMP180;4594;50.994;7.126;2023-02-01T13:17:27;100902.00;;;13.50
9119;BMP180;4594;50.994;7.126;2023-02-01T13:22:43;100901.00;;;13.50
9119;BMP180;4594;50.994;7.126;2023-02-01T13:27:35;100883.00;;;13.50
9119;BMP180;4594;50.994;7.126;2023-02-01T13:30:18;100885.00;;;13.50
9119;BMP180;4594;50.994;7.126;2023-02-01T13:36:34;100880.00;;;13.50
9119;BMP180;4594;50.994;7.126;2023-02-01T13:42:49;100890.00;;;13.40
9119;BMP180;4594;50.994;7.126;2023-02-01T13:45:24;100881.00;;;13.40
9119;BMP180;4594;50.994;7.126;2023-02-01T13:47:57;100888.00;;;13.50
9119;BMP180;4594;50.994;7.126;2023-02-01T13:50:36;100870.00;;;13.50
9119;BMP180;4594;50.994;7.126;2023-02-01T13:53:32;100882.00;;;13.40
9119;BMP180;4594;50.994;7.126;2023-02-01T13:56:03;100869.00;;;13.40
9119;BMP180;4594;50.994;7.126;2023-02-01T13:58:37;100873.00;;;13.40
9119;BMP180;4594;50.994;7.126;2023-02-01T14:04:00;100881.00;;;13.40
9119;BMP180;4594;50.994;7.126;2023-02-01T14:11:54;100883.00;;;13.40
9119;BMP180;4594;50.994;7.126;2023-02-01T14:19:29;100865.00;;;13.50
9119;BMP180;4594;50.994;7.126;2023-02-01T14:22:01;100864.00;;;13.50
9119;BMP180;4594;50.994;7.126;2023-02-01T14:24:56;100864.00;;;13.40
9119;BMP180;4594;50.994;7.126;2023-02-01T14:27:35;100896.00;;;13.50
9119;BMP180;4594;50.994;7.126;2023-02-01T14:30:07;100895.00;;;13.50
9119;BMP180;4594;50.994;7.126;2023-02-01T14:32:40;100890.00;;;13.50
9119;BMP180;4594;50.994;7.126;2023-02-01T14:35:18;100899.00;;;13.50
9119;BMP180;4594;50.994;7.126;2023-02-01T14:37:46;100890.00;;;13.50
9119;BMP180;4594;50.994;7.126;2023-02-01T14:40:24;100899.00;;;13.50
9119;BMP180;4594;50.994;7.126;2023-02-01T14:42:52;100889.00;;;13.50
9119;BMP180;4594;50.994;7.126;2023-02-01T14:50:44;100901.00;;;13.50
9119;BMP180;4594;50.994;7.126;2023-02-01T14:53:20;100906.00;;;13.50
9119;BMP180;4594;50.994;7.126;2023-02-01T14:56:04;100907.00;;;13.50
9119;BMP180;4594;50.994;7.126;2023-02-01T14:58:56;100903.00;;;13.50
9119;BMP180;4594;50.994;7.126;2023-02-01T15:01:26;100906.00;;;13.50
9119;BMP180;4594;50.994;7.126;2023-02-01T15:06:53;100884.00;;;13.50
9119;BMP180;4594;50.994;7.126;2023-02-01T15:09:38;100906.00;;;13.50
9119;BMP180;4594;50.994;7.126;2023-02-01T15:12:17;100905.00;;;13.50
9119;BMP180;4594;50.994;7.126;2023-02-01T15:15:22;100897.00;;;13.40
9119;BMP180;4594;50.994;7.126;2023-02-01T15:17:59;100919.00;;;13.40
9119;BMP180;4594;50.994;7.126;2023-02-01T15:20:32;100915.00;;;13.50
9119;BMP180;4594;50.994;7.126;2023-02-01T15:23:16;100912.00;;;13.50
9119;BMP180;4594;50.994;7.126;2023-02-01T15:25:46;100913.00;;;13.50
9119;BMP180;4594;50.994;7.126;2023-02-01T15:28:16;100934.00;;;13.50
9119;BMP180;4594;50.994;7.126;2023-02-01T15:30:59;100937.00;;;13.50
9119;BMP180;4594;50.994;7.126;2023-02-01T15:33:28;100936.00;;;13.50
9119;BMP180;4594;50.994;7.126;2023-02-01T15:36:08;100934.00;;;13.40
9119;BMP180;4594;50.994;7.126;2023-02-01T15:38:36;100929.00;;;13.40
9119;BMP180;4594;50.994;7.126;2023-02-01T15:46:48;100937.00;;;13.40
9119;BMP180;4594;50.994;7.126;2023-02-01T15:49:24;100926.00;;;13.40
9119;BMP180;4594;50.994;7.126;2023-02-01T15:51:53;100929.00;;;13.40
9119;BMP180;4594;50.994;7.126;2023-02-01T15:54:46;100924.00;;;13.40
9119;BMP180;4594;50.994;7.126;2023-02-01T15:57:29;100929.00;;;13.40
9119;BMP180;4594;50.994;7.126;2023-02-01T16:00:06;100927.00;;;13.40
9119;BMP180;4594;50.994;7.126;2023-02-01T16:02:37;100923.00;;;13.40
9119;BMP180;4594;50.994;7.126;2023-02-01T16:05:30;100931.00;;;13.40
9119;BMP180;4594;50.994;7.126;2023-02-01T16:08:24;100927.00;;;13.40
9119;BMP180;4594;50.994;7.126;2023-02-01T16:10:59;100933.00;;;13.40
9119;BMP180;4594;50.994;7.126;2023-02-01T16:13:27;100936.00;;;13.40
9119;BMP180;4594;50.994;7.126;2023-02-01T16:15:53;100944.00;;;13.50
9119;BMP180;4594;50.994;7.126;2023-02-01T16:18:19;100943.00;;;13.50
9119;BMP180;4594;50.994;7.126;2023-02-01T16:20:47;100946.00;;;13.50
9119;BMP180;4594;50.994;7.126;2023-02-01T16:23:13;100942.00;;;13.50
9119;BMP180;4594;50.994;7.126;2023-02-01T16:25:40;100947.00;;;13.50
9119;BMP180;4594;50.994;7.126;2023-02-01T16:28:06;100948.00;;;13.50
9119;BMP180;4594;50.994;7.126;2023-02-01T16:30:32;100956.00;;;13.50
9119;BMP180;4594;50.994;7.126;2023-02-01T16:33:00;100937.00;;;13.50
9119;BMP180;4594;50.994;7.126;2023-02-01T16:35:36;100941.00;;;13.40
9119;BMP180;4594;50.994;7.126;2023-02-01T16:38:05;100945.00;;;13.50
9119;BMP180;4594;50.994;7.126;2023-02-01T16:40:39;100946.00;;;13.40
9119;BMP180;4594;50.994;7.126;2023-02-01T16:43:14;100950.00;;;13.50